• Join FlightAware (Why Join?)
  • Login
  • US Flag 
06:14PM EST


 

Airport Tracker/Info


-or-


 

Live Flight TrackerFlight Track Log ✈ EJA590 ✈ 29-Apr-2012 ✈ CYYZ - KHPN

Flight Track Log - Related Links

Times and Time Zones

All times are in EDT time to prevent confusion due to time zone crossing. See the EJA590 flight status page for this flight to view local times or setup timezone preferences in your user account.

Time Position Orientation Groundspeed Altitude Reporting Facility
EDT Latitude Longitude Course Direction KTS MPH feet Rate Location/Type
08:11AM 43.6500 -79.6500 230° Southwest 190 219 2,500  Level Toronto Center
08:12AM 43.6000 -79.7333 156° South 250 288 6,300 3,780 Climbing Toronto Center
08:13AM 43.5167 -79.6833 121° Southeast 310 357 10,100 3,840 Climbing Toronto Center
08:14AM 43.4667 -79.5667 90° East 340 391 14,000 3,360 Climbing Toronto Center
08:15AM 43.4667 -79.4500 98° East 350 403 16,900 2,700 Climbing Toronto Center
08:16AM 43.4500 -79.2833 99° East 380 437 19,400 2,580 Climbing Toronto Center
08:17AM 43.4333 -79.1333 90° East 410 472 22,100 2,580 Climbing Toronto Center
08:18AM 43.4333 -78.9667 112° Southeast 420 483 24,600 2,340 Climbing Toronto Center
08:19AM 43.3833 -78.8000 131° Southeast 450 518 26,800 2,160 Climbing Toronto Center
08:20AM 43.3000 -78.6667 125° Southeast 470 541 29,000 2,220 Climbing Toronto Center
08:21AM 43.2642 -78.5961 123° Southeast 465 535 30,700 1,140 Climbing Cleveland Center
08:22AM 43.1906 -78.4419 125° Southeast 478 550 31,000 120 Climbing Cleveland Center
08:23AM 43.1019 -78.2686 124° Southeast 495 570 31,000  Level Cleveland Center
08:24AM 43.0236 -78.1097 123° Southeast 503 579 31,000  Level Cleveland Center
08:25AM 42.9450 -77.9456 108° East 508 585 31,000  Level Cleveland Center
08:26AM 42.9011 -77.7658 106° East 498 573 31,000  Level Cleveland Center
08:27AM 42.8631 -77.5833 106° East 498 573 31,000  Level Cleveland Center
08:29AM 42.7961 -77.2656 106° East 519 597 31,000  Level Boston Center
08:30AM 42.7561 -77.0783 106° East 511 588 31,000  Level Boston Center
08:31AM 42.7175 -76.8917 107° East 511 588 31,000  Level Boston Center
08:32AM 42.6767 -76.7050 109° East 506 582 31,000 -120 Level Boston Center
08:33AM 42.6294 -76.5183 111° Southeast 511 588 30,800 -840 Descending Boston Center
08:34AM 42.5739 -76.3200 111° Southeast 511 588 29,400 -1,440 Descending Boston Center
08:35AM 42.5272 -76.1564 111° Southeast 511 588 28,000 -1,500 Descending Boston Center
08:36AM 42.4747 -75.9703 112° Southeast 511 588 26,500 -1,560 Descending Boston Center
08:37AM 42.4219 -75.7900 111° Southeast 521 600 24,900 -1,620 Descending Boston Center
08:38AM 42.3689 -75.6044 112° Southeast 521 600 23,300 -1,680 Descending Boston Center
08:39AM 42.3172 -75.4278 110° East 515 593 21,600 -1,680 Descending Boston Center
08:40AM 42.2678 -75.2486 113° Southeast 515 593 20,000 -1,680 Descending Boston Center
08:41AM 42.2172 -75.0894 113° Southeast 489 563 18,300 -1,020 Descending Boston Center
08:42AM 42.1686 -74.9361 119° Southeast 461 531 18,000 -180 Descending Boston Center
08:43AM 42.1053 -74.7853 120° Southeast 456 525 18,000 -420 Level Boston Center
08:44AM 42.0336 -74.6175 123° Southeast 467 537 17,200 -1,140 Descending Boston Center
08:45AM 41.9672 -74.4783 138° Southeast 458 527 15,800 -1,440 Descending Boston Center
08:46AM 41.8856 -74.3811 140° Southeast 432 497 14,400 -1,500 Descending Boston Center
08:47AM 41.7917 -74.2750 140° Southeast 421 484 12,800 -1,500 Descending Boston Center
08:48AM 41.7158 -74.1894 141° Southeast 404 465 11,400 -1,560 Descending Boston Center
08:49AM 41.6400 -74.1067 138° Southeast 366 421 9,700 -1,860 Descending Boston Center
08:50AM 41.5500 -74.0000 143° Southeast 318 366 7,300 -1,680 Descending New York TRACON
08:51AM 41.4833 -73.9333 143° Southeast 294 338 6,100 -900 Descending New York TRACON
08:52AM 41.4167 -73.8667 143° Southeast 288 331 5,600 -1,020 Descending New York TRACON
08:53AM 41.3667 -73.8167 143° Southeast 279 321 4,100 -1,260 Descending New York TRACON
08:54AM 41.3000 -73.7500 153° Southeast 263 303 3,100 -600 Descending New York TRACON
08:55AM 41.2500 -73.7167 143° Southeast 258 297 3,100  Level New York TRACON
08:56AM 41.2000 -73.6667 143° Southeast 261 300 3,100  Level New York TRACON
08:57AM 41.1333 -73.6000 169° South 269 310 3,100  Level New York TRACON
08:57AM 41.0667 -73.5833 153° Southeast 247 284 3,100 -120 Level New York TRACON
08:58AM 41.0167 -73.5500 229° Southwest 221 254 2,900 -540 Descending New York TRACON
08:59AM 40.9833 -73.6000 270° West 176 203 2,100 -480 Descending New York TRACON
09:00AM 40.9833 -73.6500 339° North 161 185 2,000 -300 Descending New York TRACON
09:01AM 41.0167 -73.6667 339° North 129 148 1,600 -420 Descending New York TRACON